Time;durP1;ratioP1;P1;durP2;ratioP2;P2;SDS_P1;SDS_P2;PMS_P1;PMS_P2;Temp;Humidity;BMP_temperature;BMP_pressure;BME280_temperature;BME280_humidity;BME280_pressure;Samples;Min_cycle;Max_cycle;Signal;HPM_P1;HPM_P2
2021/01/04 00:02:13;;;;;;;31.55;20.45;;;0.90;99.90;;;;;;4986413;28;20711;-72
2021/01/04 00:07:39;;;;;;;28.20;18.85;;;0.90;99.90;;;;;;4968495;28;20235;-72
2021/01/04 00:10:23;;;;;;;30.13;20.85;;;0.90;99.90;;;;;;4968838;28;20223;-72
2021/01/04 00:12:55;;;;;;;31.02;20.25;;;0.90;99.90;;;;;;4970099;28;20679;-72
2021/01/04 00:15:27;;;;;;;31.33;20.65;;;0.90;99.90;;;;;;4970264;28;20224;-72
2021/01/04 00:18:15;;;;;;;30.50;19.75;;;1.00;99.90;;;;;;4970215;28;20204;-72
2021/01/04 00:20:49;;;;;;;31.17;20.40;;;0.90;99.90;;;;;;4969826;28;20204;-73
2021/01/04 00:23:34;;;;;;;33.10;19.25;;;0.90;99.90;;;;;;4969237;28;20210;-72
2021/01/04 00:26:04;;;;;;;27.40;18.80;;;1.00;99.90;;;;;;4969813;28;20207;-72
2021/01/04 00:28:35;;;;;;;31.23;19.90;;;0.90;99.90;;;;;;4970093;28;20282;-72
2021/01/04 00:31:06;;;;;;;31.48;19.88;;;1.00;99.90;;;;;;4969875;28;20204;-72
2021/01/04 00:33:37;;;;;;;34.75;19.95;;;1.00;99.90;;;;;;4969525;28;20231;-72
2021/01/04 00:36:06;;;;;;;36.25;22.33;;;0.90;99.90;;;;;;4969661;28;20203;-72
2021/01/04 00:39:08;;;;;;;30.73;18.92;;;0.90;99.90;;;;;;4969841;28;20204;-72
2021/01/04 00:41:46;;;;;;;31.85;20.52;;;0.90;99.90;;;;;;4957804;28;20203;-72
2021/01/04 00:44:17;;;;;;;33.90;21.33;;;0.80;99.90;;;;;;4960877;28;20216;-72
2021/01/04 00:46:48;;;;;;;33.80;20.98;;;0.80;99.90;;;;;;4968172;28;20556;-72
2021/01/04 00:49:21;;;;;;;32.72;20.08;;;0.90;99.90;;;;;;4960823;28;20275;-72
2021/01/04 00:51:54;;;;;;;34.72;21.13;;;0.90;99.90;;;;;;4951045;28;20881;-73
2021/01/04 00:54:42;;;;;;;35.83;21.35;;;0.90;99.90;;;;;;4947834;29;20586;-73
2021/01/04 00:57:29;;;;;;;35.78;21.65;;;0.90;99.90;;;;;;4948775;29;20251;-73
2021/01/04 01:00:08;;;;;;;32.72;20.20;;;0.90;99.90;;;;;;4948120;29;20201;-73
2021/01/04 01:02:59;;;;;;;34.65;22.20;;;0.90;99.90;;;;;;4949801;29;20703;-73
2021/01/04 01:05:36;;;;;;;32.55;19.48;;;0.90;99.90;;;;;;4945650;29;20224;-73
2021/01/04 01:08:13;;;;;;;30.90;20.30;;;0.90;99.90;;;;;;4949959;29;20212;-72
2021/01/04 01:10:42;;;;;;;30.05;19.48;;;0.90;99.90;;;;;;4950609;29;20204;-73
2021/01/04 01:13:21;;;;;;;31.67;20.40;;;0.90;99.90;;;;;;4949560;29;20208;-73
2021/01/04 01:15:58;;;;;;;34.22;20.33;;;0.90;99.90;;;;;;4950851;29;20200;-73
2021/01/04 01:18:36;;;;;;;34.58;19.98;;;0.90;99.90;;;;;;4950421;29;20204;-73
2021/01/04 01:21:06;;;;;;;32.47;21.27;;;0.90;99.90;;;;;;4950035;29;20879;-72
2021/01/04 01:23:33;;;;;;;33.65;20.88;;;0.90;99.90;;;;;;4949747;29;20228;-73
2021/01/04 01:26:17;;;;;;;31.13;20.42;;;1.00;99.90;;;;;;4949992;29;20208;-73
2021/01/04 01:29:19;;;;;;;28.58;17.77;;;1.00;99.90;;;;;;4950457;29;20235;-73
2021/01/04 01:32:04;;;;;;;32.05;19.73;;;1.00;99.90;;;;;;4949779;29;20697;-73
2021/01/04 01:34:43;;;;;;;30.08;18.70;;;1.00;99.90;;;;;;4950190;29;20225;-73
2021/01/04 01:37:25;;;;;;;34.53;21.00;;;0.90;99.90;;;;;;4950070;29;20204;-73
2021/01/04 01:40:26;;;;;;;30.40;19.95;;;0.90;99.90;;;;;;4950810;29;20204;-73
2021/01/04 01:43:23;;;;;;;31.05;18.20;;;0.80;99.90;;;;;;4949986;29;20587;-72
2021/01/04 01:45:57;;;;;;;30.98;18.63;;;0.80;99.90;;;;;;4950854;29;20672;-73
2021/01/04 01:48:40;;;;;;;33.35;21.00;;;0.80;99.90;;;;;;4952620;28;20655;-73
2021/01/04 01:51:34;;;;;;;31.33;18.75;;;0.90;99.90;;;;;;4954272;29;20605;-73
2021/01/04 01:54:15;;;;;;;29.75;19.08;;;0.90;99.90;;;;;;4954137;29;20221;-73
2021/01/04 01:57:00;;;;;;;34.50;20.17;;;0.90;99.90;;;;;;4954341;29;20676;-73
2021/01/04 01:59:42;;;;;;;36.28;21.13;;;0.90;99.90;;;;;;4954376;29;20259;-73
2021/01/04 02:02:18;;;;;;;35.45;20.77;;;0.80;99.90;;;;;;4953335;29;20212;-73
2021/01/04 02:05:00;;;;;;;32.80;20.38;;;0.90;99.90;;;;;;4954049;29;20220;-73
2021/01/04 02:07:35;;;;;;;31.08;19.50;;;0.90;99.90;;;;;;4953913;29;20220;-73
2021/01/04 02:10:08;;;;;;;30.08;18.98;;;0.90;99.90;;;;;;4953756;29;20223;-73
2021/01/04 02:12:40;;;;;;;29.60;18.95;;;0.90;99.90;;;;;;4953307;29;20227;-73
2021/01/04 02:15:11;;;;;;;29.65;20.10;;;0.90;99.90;;;;;;4953487;29;20735;-72
2021/01/04 02:18:03;;;;;;;29.58;19.27;;;0.90;99.90;;;;;;4953642;29;20209;-72
2021/01/04 02:20:56;;;;;;;30.13;18.63;;;0.90;99.90;;;;;;4946895;29;20211;-73
2021/01/04 02:23:36;;;;;;;33.50;20.42;;;0.80;99.90;;;;;;4952958;29;20729;-73
2021/01/04 02:26:09;;;;;;;32.22;19.50;;;0.90;99.90;;;;;;4953351;29;20208;-73
2021/01/04 02:28:42;;;;;;;31.27;19.88;;;0.90;99.90;;;;;;4953286;29;20715;-73
2021/01/04 02:31:08;;;;;;;34.80;20.17;;;0.90;99.90;;;;;;4952985;29;20595;-73
2021/01/04 02:33:35;;;;;;;35.65;20.50;;;0.90;99.90;;;;;;4952705;29;20220;-73
2021/01/04 02:36:01;;;;;;;36.17;21.38;;;0.90;99.90;;;;;;4953168;29;20208;-73
2021/01/04 02:38:37;;;;;;;33.75;21.30;;;0.90;99.90;;;;;;4953292;29;20267;-73
2021/01/04 02:41:04;;;;;;;36.05;22.48;;;0.90;99.90;;;;;;4953046;29;20212;-73
2021/01/04 02:43:30;;;;;;;32.67;20.25;;;0.90;99.90;;;;;;4952485;29;20232;-73
2021/01/04 02:46:04;;;;;;;33.63;22.38;;;0.80;99.90;;;;;;4953105;29;20252;-73
2021/01/04 02:48:36;;;;;;;30.48;19.27;;;0.80;99.90;;;;;;4952895;29;20224;-73
2021/01/04 02:51:10;;;;;;;33.83;20.63;;;0.90;99.90;;;;;;4953322;29;20662;-73
2021/01/04 02:53:58;;;;;;;35.40;21.67;;;0.90;99.90;;;;;;4952572;29;20223;-73
2021/01/04 02:56:38;;;;;;;31.25;18.73;;;0.80;99.90;;;;;;4953115;29;20200;-73
2021/01/04 02:59:18;;;;;;;29.15;19.52;;;0.90;99.90;;;;;;4952320;28;20723;-73
2021/01/04 03:01:50;;;;;;;30.92;19.42;;;0.80;99.90;;;;;;4952236;29;20672;-73
2021/01/04 03:04:20;;;;;;;33.20;19.63;;;0.80;99.90;;;;;;4952585;29;20229;-73
2021/01/04 03:07:00;;;;;;;35.55;20.75;;;0.80;99.90;;;;;;4952779;29;20212;-73
2021/01/04 03:09:28;;;;;;;31.90;20.25;;;0.70;99.90;;;;;;4952693;29;20225;-73
2021/01/04 03:11:56;;;;;;;30.85;19.85;;;0.70;99.90;;;;;;4951887;29;20260;-73
2021/01/04 03:14:32;;;;;;;35.83;20.77;;;0.70;99.90;;;;;;4952614;29;20220;-73
2021/01/04 03:17:07;;;;;;;30.75;21.48;;;0.70;99.90;;;;;;4952422;29;20211;-73
2021/01/04 03:19:39;;;;;;;32.35;20.10;;;0.70;99.90;;;;;;4952699;29;20211;-73
2021/01/04 03:22:09;;;;;;;30.80;19.80;;;0.70;99.90;;;;;;4951716;29;20263;-73
2021/01/04 03:24:35;;;;;;;34.30;22.33;;;0.60;99.90;;;;;;4952456;29;20264;-73
2021/01/04 03:27:08;;;;;;;32.70;21.70;;;0.60;99.90;;;;;;4952273;29;20228;-72
2021/01/04 03:29:34;;;;;;;29.30;20.08;;;0.60;99.90;;;;;;4952411;29;20228;-73
2021/01/04 03:32:00;;;;;;;33.85;20.70;;;0.60;99.90;;;;;;4951835;29;20213;-73
2021/01/04 03:34:27;;;;;;;39.65;21.52;;;0.60;99.90;;;;;;4952049;29;20712;-73
2021/01/04 03:36:53;;;;;;;34.72;21.35;;;0.70;99.90;;;;;;4952214;29;20208;-73
2021/01/04 03:39:19;;;;;;;33.83;20.60;;;0.60;99.90;;;;;;4952114;29;20212;-73
2021/01/04 03:41:47;;;;;;;33.75;21.20;;;0.70;99.90;;;;;;4951579;29;20204;-73
2021/01/04 03:44:14;;;;;;;36.08;21.42;;;0.70;99.90;;;;;;4951861;29;20232;-73
2021/01/04 03:46:45;;;;;;;42.05;22.27;;;0.70;99.90;;;;;;4951942;29;20256;-73
2021/01/04 03:49:11;;;;;;;31.08;19.73;;;0.70;99.90;;;;;;4952008;29;20642;-73
2021/01/04 03:51:37;;;;;;;29.95;19.05;;;0.70;99.90;;;;;;4951186;29;20711;-73
2021/01/04 03:54:04;;;;;;;31.67;20.05;;;0.70;99.90;;;;;;4951685;29;20267;-73
2021/01/04 03:56:30;;;;;;;29.83;18.80;;;0.70;99.90;;;;;;4951894;29;20207;-73
2021/01/04 03:58:56;;;;;;;28.80;19.08;;;0.70;99.90;;;;;;4951542;29;20200;-72
2021/01/04 04:01:23;;;;;;;30.67;20.83;;;0.70;99.90;;;;;;4951929;29;20215;-73
2021/01/04 04:03:50;;;;;;;27.90;19.33;;;0.70;99.90;;;;;;4951436;29;20644;-73
2021/01/04 04:06:16;;;;;;;35.60;21.83;;;0.70;99.90;;;;;;4951916;29;20220;-73
2021/01/04 04:08:42;;;;;;;27.77;19.30;;;0.70;99.90;;;;;;4951648;29;20227;-73
2021/01/04 04:11:09;;;;;;;33.92;20.48;;;0.80;99.90;;;;;;4950652;28;20256;-73
2021/01/04 04:13:35;;;;;;;33.92;21.10;;;0.80;99.90;;;;;;4950976;29;20235;-74
2021/01/04 04:16:02;;;;;;;33.67;20.73;;;0.80;99.90;;;;;;4951395;29;20205;-73
2021/01/04 04:18:29;;;;;;;29.98;18.05;;;0.80;99.90;;;;;;4951490;29;20200;-73
2021/01/04 04:20:55;;;;;;;26.88;18.42;;;0.80;99.90;;;;;;4951105;29;20239;-73
2021/01/04 04:23:21;;;;;;;32.35;21.05;;;0.70;99.90;;;;;;4950855;29;20369;-73
2021/01/04 04:25:47;;;;;;;34.75;20.10;;;0.70;99.90;;;;;;4951303;29;20208;-73
2021/01/04 04:28:14;;;;;;;35.25;21.23;;;0.60;99.90;;;;;;4950949;29;20243;-73
2021/01/04 04:30:40;;;;;;;37.00;21.42;;;0.60;99.90;;;;;;4951202;29;20590;-73
2021/01/04 04:33:06;;;;;;;31.90;20.17;;;0.50;99.90;;;;;;4950297;29;20209;-73
2021/01/04 04:35:33;;;;;;;31.17;19.60;;;0.60;99.90;;;;;;4951317;29;20597;-73
2021/01/04 04:37:59;;;;;;;27.02;18.33;;;0.60;99.90;;;;;;4951129;29;20200;-73
2021/01/04 04:40:29;;;;;;;34.17;21.38;;;0.60;99.90;;;;;;4951065;29;20212;-73
2021/01/04 04:42:57;;;;;;;32.60;19.85;;;0.70;99.90;;;;;;4950507;29;20688;-74
2021/01/04 04:45:23;;;;;;;31.88;19.70;;;0.70;99.90;;;;;;4950782;29;20224;-73
2021/01/04 04:48:20;;;;;;;32.28;19.83;;;0.80;99.90;;;;;;4951297;29;20596;-74
2021/01/04 04:51:27;;;;;;;35.60;20.30;;;0.70;99.90;;;;;;4950874;29;20259;-73
2021/01/04 04:54:39;;;;;;;29.15;18.63;;;0.70;99.90;;;;;;4950350;29;20247;-73
2021/01/04 04:57:49;;;;;;;30.85;19.45;;;0.70;99.90;;;;;;4891350;29;20634;-72
2021/01/04 05:00:32;;;;;;;28.35;19.17;;;0.60;99.90;;;;;;4950904;29;20630;-73
2021/01/04 05:03:12;;;;;;;31.17;18.58;;;0.60;99.90;;;;;;4950142;29;20326;-73
2021/01/04 05:05:54;;;;;;;33.25;21.83;;;0.60;99.90;;;;;;4950866;29;20331;-73
2021/01/04 05:08:50;;;;;;;27.90;17.92;;;0.60;99.90;;;;;;4950830;29;20265;-73
2021/01/04 05:11:21;;;;;;;31.10;17.75;;;0.60;99.90;;;;;;4950794;29;20207;-73
2021/01/04 05:13:51;;;;;;;28.67;19.25;;;0.70;99.90;;;;;;4950154;29;20229;-73
2021/01/04 05:16:26;;;;;;;31.67;19.30;;;0.70;99.90;;;;;;4950585;29;20642;-73
2021/01/04 05:19:26;;;;;;;29.85;20.00;;;0.70;99.90;;;;;;4950677;29;20199;-73
2021/01/04 05:22:40;;;;;;;28.48;18.40;;;0.70;99.90;;;;;;4951555;28;20211;-73
2021/01/04 05:25:38;;;;;;;30.00;18.98;;;0.70;99.90;;;;;;4954250;29;20573;-73
2021/01/04 05:28:46;;;;;;;25.38;18.25;;;0.70;99.90;;;;;;4930715;29;20208;-74
2021/01/04 05:31:40;;;;;;;29.88;20.13;;;0.70;99.90;;;;;;4954111;29;20208;-73
2021/01/04 05:34:09;;;;;;;31.73;19.48;;;0.70;99.90;;;;;;4952114;29;20299;-73
2021/01/04 05:36:58;;;;;;;28.08;18.33;;;0.70;99.90;;;;;;4954447;29;20216;-73
2021/01/04 05:39:52;;;;;;;26.40;18.10;;;0.70;99.90;;;;;;4954390;29;20208;-73
2021/01/04 05:42:33;;;;;;;31.20;18.90;;;0.70;99.90;;;;;;4953626;29;20205;-74
2021/01/04 05:45:05;;;;;;;31.38;19.02;;;0.80;99.90;;;;;;4953833;29;20220;-73
2021/01/04 05:47:39;;;;;;;31.38;19.23;;;0.80;99.90;;;;;;4954281;29;20208;-73
2021/01/04 05:50:17;;;;;;;31.95;19.95;;;0.80;99.90;;;;;;4953703;29;20227;-73
2021/01/04 05:52:44;;;;;;;29.38;19.10;;;0.80;99.90;;;;;;4953721;29;20208;-73
2021/01/04 05:55:14;;;;;;;28.20;19.15;;;0.80;99.90;;;;;;4953725;29;20232;-73
2021/01/04 05:57:45;;;;;;;27.60;18.85;;;0.80;99.90;;;;;;4953943;29;20215;-73
2021/01/04 06:00:13;;;;;;;34.83;20.58;;;0.80;99.90;;;;;;4953441;29;20696;-73
2021/01/04 06:02:39;;;;;;;28.02;19.05;;;0.70;99.90;;;;;;4953307;29;20231;-73
2021/01/04 06:05:08;;;;;;;31.67;19.73;;;0.70;99.90;;;;;;4953684;29;20232;-73
2021/01/04 06:07:35;;;;;;;33.75;19.40;;;0.70;99.90;;;;;;5150297;23;20730;-70
2021/01/04 06:10:01;;;;;;;29.17;18.17;;;0.60;99.90;;;;;;4992197;28;20638;-70
2021/01/04 06:12:34;;;;;;;30.17;19.13;;;0.60;99.90;;;;;;4991836;28;20218;-69
2021/01/04 06:15:04;;;;;;;28.38;19.77;;;0.70;99.90;;;;;;4992211;28;20226;-71
2021/01/04 06:17:34;;;;;;;29.75;19.70;;;0.70;99.90;;;;;;4992464;28;20213;-70
2021/01/04 06:20:09;;;;;;;33.88;22.05;;;0.70;99.90;;;;;;4992035;28;20311;-70
2021/01/04 06:22:36;;;;;;;27.77;19.38;;;0.70;99.90;;;;;;4991878;28;20206;-69
2021/01/04 06:25:05;;;;;;;28.63;19.23;;;0.80;99.90;;;;;;4991815;28;20227;-69
2021/01/04 06:27:37;;;;;;;33.05;20.30;;;0.90;99.90;;;;;;4992354;28;20293;-68
2021/01/04 06:30:19;;;;;;;29.63;18.73;;;0.80;99.90;;;;;;4991896;28;20578;-70
2021/01/04 06:32:47;;;;;;;30.77;17.85;;;0.80;99.90;;;;;;4991306;28;20229;-70
2021/01/04 06:35:22;;;;;;;31.00;19.73;;;0.80;99.90;;;;;;4991396;28;20230;-71
2021/01/04 06:37:49;;;;;;;32.92;20.55;;;0.80;99.90;;;;;;4991924;28;20206;-70
2021/01/04 06:40:31;;;;;;;25.80;18.50;;;0.80;99.90;;;;;;4991823;28;20199;-70
2021/01/04 06:42:57;;;;;;;29.85;18.77;;;0.80;99.90;;;;;;4990988;28;20670;-70
2021/01/04 06:45:34;;;;;;;28.90;19.23;;;0.80;99.90;;;;;;4991830;28;20227;-70
2021/01/04 06:48:08;;;;;;;30.48;19.08;;;0.80;99.90;;;;;;4991527;28;20211;-70
2021/01/04 06:50:52;;;;;;;30.83;19.23;;;0.80;99.90;;;;;;4991688;28;20230;-70
2021/01/04 06:53:58;;;;;;;31.88;19.27;;;0.70;99.90;;;;;;4991268;28;20656;-70
2021/01/04 06:57:06;;;;;;;32.58;20.27;;;0.70;99.90;;;;;;4958494;28;20209;-69
2021/01/04 07:00:07;;;;;;;32.15;20.88;;;0.80;99.90;;;;;;4991550;28;20207;-70
2021/01/04 07:03:19;;;;;;;29.60;19.08;;;0.80;99.90;;;;;;4990652;28;20202;-70
2021/01/04 07:06:17;;;;;;;29.90;19.45;;;0.90;99.90;;;;;;4991317;28;20270;-70
2021/01/04 07:09:28;;;;;;;29.15;18.63;;;0.80;99.90;;;;;;4991377;28;20219;-70
2021/01/04 07:11:59;;;;;;;29.67;18.38;;;0.80;99.90;;;;;;4989766;28;20207;-70
2021/01/04 07:14:52;;;;;;;28.63;18.80;;;0.90;99.90;;;;;;4978650;28;20230;-70
2021/01/04 07:17:35;;;;;;;26.88;19.20;;;0.90;99.90;;;;;;4971471;28;20211;-70
2021/01/04 07:20:43;;;;;;;28.83;19.80;;;0.80;99.90;;;;;;4971731;28;20200;-71
2021/01/04 07:23:31;;;;;;;31.02;18.70;;;0.90;99.90;;;;;;4934705;28;20203;-70
2021/01/04 07:26:04;;;;;;;29.35;19.88;;;0.90;99.90;;;;;;4971670;28;20251;-71
2021/01/04 07:28:53;;;;;;;29.63;20.20;;;0.90;99.90;;;;;;4971353;28;20204;-72
2021/01/04 07:31:30;;;;;;;33.67;20.15;;;0.90;99.90;;;;;;4971620;28;20204;-71
2021/01/04 07:34:01;;;;;;;32.60;19.77;;;0.90;99.90;;;;;;4971065;28;20460;-70
2021/01/04 07:36:35;;;;;;;35.80;20.60;;;0.90;99.90;;;;;;4979083;28;20210;-71
2021/01/04 07:39:15;;;;;;;33.38;23.42;;;0.90;99.90;;;;;;4988332;28;20203;-70
2021/01/04 07:41:54;;;;;;;32.45;22.35;;;0.80;99.90;;;;;;4977173;28;20199;-69
2021/01/04 07:44:46;;;;;;;33.83;21.42;;;0.90;99.90;;;;;;4985269;28;20321;-71
2021/01/04 07:47:42;;;;;;;34.63;20.83;;;1.10;99.90;;;;;;4975576;28;20611;-70
2021/01/04 07:50:52;;;;;;;35.70;21.52;;;1.20;99.90;;;;;;4984518;28;20223;-70
2021/01/04 07:53:57;;;;;;;31.30;19.33;;;1.20;99.90;;;;;;4986643;28;20241;-69
2021/01/04 07:56:57;;;;;;;33.17;21.48;;;1.10;99.90;;;;;;4988072;28;20573;-71
2021/01/04 07:59:56;;;;;;;32.53;19.20;;;1.00;99.90;;;;;;4985967;28;20203;-70
2021/01/04 08:02:50;;;;;;;30.38;19.88;;;1.00;99.90;;;;;;4979458;28;20302;-70
2021/01/04 08:05:53;;;;;;;30.52;19.63;;;1.00;99.90;;;;;;4944633;28;20227;-70
2021/01/04 08:08:42;;;;;;;32.55;19.85;;;1.00;99.90;;;;;;4978387;28;20215;-71
2021/01/04 08:11:59;;;;;;;31.10;19.80;;;1.00;99.90;;;;;;4959007;28;20219;-70
2021/01/04 08:14:51;;;;;;;29.65;20.17;;;1.00;99.90;;;;;;4974838;28;20453;-71
2021/01/04 08:17:22;;;;;;;30.50;20.05;;;1.10;99.90;;;;;;4973736;28;20211;-71
2021/01/04 08:19:52;;;;;;;31.65;21.35;;;1.10;99.90;;;;;;4979714;28;20207;-70
2021/01/04 08:22:37;;;;;;;33.30;20.73;;;1.10;99.90;;;;;;4984702;28;20204;-69
2021/01/04 08:25:10;;;;;;;30.23;20.70;;;1.10;99.90;;;;;;4969771;28;20227;-71
2021/01/04 08:27:54;;;;;;;31.25;20.95;;;1.10;99.90;;;;;;4975909;28;20216;-71
2021/01/04 08:30:26;;;;;;;29.52;20.13;;;1.10;99.90;;;;;;4969219;28;20242;-71
2021/01/04 08:32:58;;;;;;;29.42;20.42;;;1.10;99.90;;;;;;4987389;28;20203;-70
2021/01/04 08:35:35;;;;;;;30.40;19.98;;;1.00;99.90;;;;;;4980010;28;20227;-70
2021/01/04 08:38:29;;;;;;;30.80;19.88;;;1.10;99.90;;;;;;4986739;28;20671;-69
2021/01/04 08:40:59;;;;;;;33.33;19.45;;;1.10;99.90;;;;;;4989277;28;20566;-71
2021/01/04 08:43:34;;;;;;;33.30;20.83;;;1.20;99.90;;;;;;4988499;28;20242;-71
2021/01/04 08:46:14;;;;;;;29.67;20.15;;;1.20;99.90;;;;;;4979786;28;20269;-71
2021/01/04 08:48:41;;;;;;;31.88;20.45;;;1.30;99.90;;;;;;4979800;28;20199;-70
2021/01/04 08:51:10;;;;;;;31.40;20.67;;;1.30;99.90;;;;;;4977795;28;20207;-71
2021/01/04 08:53:36;;;;;;;29.15;19.85;;;1.40;99.90;;;;;;4977978;28;20231;-69
2021/01/04 08:56:17;;;;;;;35.20;21.20;;;1.40;99.90;;;;;;4987719;28;20214;-69
2021/01/04 08:58:45;;;;;;;29.77;19.20;;;1.30;99.90;;;;;;4981155;28;20590;-69
2021/01/04 09:01:24;;;;;;;28.85;19.35;;;1.30;99.90;;;;;;4976403;28;20224;-69
2021/01/04 09:04:02;;;;;;;31.40;20.88;;;1.30;99.90;;;;;;4983797;28;20642;-69
2021/01/04 09:06:30;;;;;;;29.50;19.23;;;1.30;99.90;;;;;;4969748;28;20765;-70
2021/01/04 09:09:07;;;;;;;31.13;20.10;;;1.30;99.90;;;;;;4969959;28;20234;-67
2021/01/04 09:11:38;;;;;;;30.48;21.20;;;1.40;99.90;;;;;;4969733;28;20211;-68
2021/01/04 09:14:16;;;;;;;29.63;19.33;;;1.40;99.90;;;;;;4969795;28;20231;-69
2021/01/04 09:16:45;;;;;;;29.45;18.50;;;1.40;99.90;;;;;;4971652;28;20207;-69
2021/01/04 09:19:23;;;;;;;28.15;19.05;;;1.40;99.90;;;;;;4988235;28;20257;-69
2021/01/04 09:21:50;;;;;;;32.97;20.10;;;1.50;99.90;;;;;;4989224;28;20245;-69
2021/01/04 09:24:34;;;;;;;31.80;20.25;;;1.50;99.90;;;;;;4988103;28;20571;-68
2021/01/04 09:27:05;;;;;;;26.85;19.83;;;1.50;99.90;;;;;;4988980;28;20301;-68
2021/01/04 09:29:36;;;;;;;31.75;20.05;;;1.60;99.90;;;;;;4989001;28;20249;-70
2021/01/04 09:32:09;;;;;;;35.10;22.25;;;1.60;99.90;;;;;;4988597;28;20206;-69
2021/01/04 09:34:36;;;;;;;30.98;20.55;;;1.50;99.90;;;;;;4973488;28;20369;-69
2021/01/04 09:37:06;;;;;;;31.70;21.08;;;1.60;99.90;;;;;;4968574;28;20203;-69
2021/01/04 09:39:34;;;;;;;28.08;19.05;;;1.60;99.90;;;;;;4978803;28;20741;-69
2021/01/04 09:42:03;;;;;;;28.60;18.92;;;1.60;99.90;;;;;;4970163;28;20204;-70
2021/01/04 09:44:31;;;;;;;28.88;20.05;;;1.70;99.90;;;;;;4966697;28;20727;-68
2021/01/04 09:47:01;;;;;;;30.52;19.67;;;1.70;99.90;;;;;;4978115;28;20207;-70
2021/01/04 09:49:34;;;;;;;27.75;19.60;;;1.70;99.90;;;;;;4981822;28;20235;-70
2021/01/04 09:52:05;;;;;;;27.63;17.67;;;1.70;99.90;;;;;;4976294;28;20671;-68
2021/01/04 09:54:38;;;;;;;28.95;18.20;;;1.70;99.90;;;;;;4969482;28;20228;-70
2021/01/04 09:57:07;;;;;;;28.02;18.38;;;1.70;99.90;;;;;;4968193;28;20215;-68
2021/01/04 09:59:40;;;;;;;28.92;18.20;;;1.70;99.90;;;;;;4974256;28;20207;-70
2021/01/04 10:02:07;;;;;;;26.95;18.25;;;1.70;99.90;;;;;;4969924;28;20238;-68
2021/01/04 10:04:38;;;;;;;30.45;19.70;;;1.80;99.90;;;;;;4975268;28;20229;-69
2021/01/04 10:07:07;;;;;;;28.40;17.83;;;1.80;99.90;;;;;;4985589;28;20219;-70
2021/01/04 10:09:40;;;;;;;26.02;18.27;;;1.80;99.90;;;;;;4980922;28;20234;-70
2021/01/04 10:12:08;;;;;;;23.15;15.07;;;1.80;99.90;;;;;;4982963;28;20207;-70
2021/01/04 10:14:34;;;;;;;23.17;18.05;;;1.90;99.90;;;;;;4986976;28;20741;-72
2021/01/04 10:17:02;;;;;;;25.58;17.90;;;1.90;99.90;;;;;;4980088;28;20674;-69
2021/01/04 10:19:35;;;;;;;28.13;16.73;;;1.90;99.90;;;;;;4983560;28;20211;-71
2021/01/04 10:22:06;;;;;;;25.98;17.20;;;1.80;99.90;;;;;;4976535;28;20208;-70
2021/01/04 10:24:38;;;;;;;24.08;18.13;;;1.90;99.90;;;;;;4974401;28;20231;-70
2021/01/04 10:27:06;;;;;;;25.33;18.00;;;1.90;99.90;;;;;;4983673;28;20579;-70
2021/01/04 10:29:39;;;;;;;26.38;17.75;;;1.90;99.90;;;;;;4978996;28;20637;-70
2021/01/04 10:32:11;;;;;;;26.48;17.30;;;2.00;99.90;;;;;;4974781;28;20211;-69
2021/01/04 10:34:40;;;;;;;27.75;17.45;;;2.00;99.90;;;;;;4981830;28;20255;-69
2021/01/04 10:37:38;;;;;;;23.40;16.75;;;2.00;99.90;;;;;;4974641;28;20199;-69
2021/01/04 10:40:08;;;;;;;24.83;16.23;;;2.00;99.90;;;;;;4969531;28;20200;-69
2021/01/04 10:42:37;;;;;;;24.45;16.83;;;2.00;99.90;;;;;;4975222;28;20204;-70
2021/01/04 10:45:08;;;;;;;23.08;16.15;;;2.00;99.90;;;;;;4974848;28;20749;-70
2021/01/04 10:47:51;;;;;;;23.00;15.98;;;2.00;99.90;;;;;;4974075;28;20579;-69
2021/01/04 10:50:20;;;;;;;22.25;15.40;;;1.90;99.90;;;;;;4977029;28;20231;-69
2021/01/04 10:52:58;;;;;;;19.48;13.88;;;1.90;99.90;;;;;;4968702;28;20204;-69
2021/01/04 10:55:26;;;;;;;22.42;14.43;;;1.90;99.90;;;;;;4982725;28;20320;-70
2021/01/04 10:57:57;;;;;;;23.58;16.40;;;1.90;99.90;;;;;;4972450;28;20208;-70
2021/01/04 11:00:28;;;;;;;21.98;14.85;;;1.90;99.90;;;;;;4968946;28;20622;-70
2021/01/04 11:02:55;;;;;;;22.38;15.00;;;1.80;99.90;;;;;;4975710;28;20207;-70
2021/01/04 11:05:38;;;;;;;18.95;14.40;;;1.90;99.90;;;;;;4972218;28;20228;-70
2021/01/04 11:08:19;;;;;;;21.85;15.52;;;1.80;99.90;;;;;;4985708;28;20637;-70
2021/01/04 11:10:53;;;;;;;18.83;14.77;;;1.80;99.90;;;;;;4984993;28;20769;-70
2021/01/04 11:13:31;;;;;;;22.42;15.23;;;1.70;99.90;;;;;;4968577;28;20238;-70
2021/01/04 11:16:13;;;;;;;23.15;15.20;;;1.70;99.90;;;;;;4975156;28;20575;-70
2021/01/04 11:18:51;;;;;;;24.58;16.52;;;1.70;99.90;;;;;;4976361;28;20207;-69
2021/01/04 11:21:18;;;;;;;18.58;12.95;;;1.70;99.90;;;;;;4981442;28;20203;-70
2021/01/04 11:23:46;;;;;;;21.60;14.95;;;1.60;99.90;;;;;;4971355;28;20223;-69
2021/01/04 11:26:12;;;;;;;18.45;13.68;;;1.50;99.90;;;;;;4967436;28;20208;-68
2021/01/04 11:28:38;;;;;;;21.73;15.35;;;1.60;99.90;;;;;;4967635;28;20207;-68
2021/01/04 11:31:05;;;;;;;19.20;13.63;;;1.50;99.90;;;;;;4967272;28;20227;-69
2021/01/04 11:33:32;;;;;;;19.63;13.20;;;1.50;99.90;;;;;;4967107;28;20219;-69
2021/01/04 11:35:58;;;;;;;24.60;14.27;;;1.60;99.90;;;;;;4968431;28;20219;-70
2021/01/04 11:38:26;;;;;;;20.65;13.75;;;1.50;99.90;;;;;;4966665;28;20306;-70
2021/01/04 11:40:54;;;;;;;17.45;12.77;;;1.50;99.90;;;;;;4967904;28;20204;-70
2021/01/04 11:43:20;;;;;;;17.38;12.98;;;1.50;99.90;;;;;;4966716;28;20608;-69
2021/01/04 11:45:46;;;;;;;19.38;12.48;;;1.60;99.90;;;;;;4967806;28;20719;-70
2021/01/04 11:48:13;;;;;;;18.92;11.88;;;1.50;99.90;;;;;;4967775;28;20207;-70
2021/01/04 11:50:39;;;;;;;16.80;13.13;;;1.50;99.90;;;;;;4967418;28;20219;-69
2021/01/04 11:53:05;;;;;;;14.93;10.95;;;1.50;99.90;;;;;;4970347;28;21546;-69
2021/01/04 11:55:32;;;;;;;15.20;11.50;;;1.50;99.90;;;;;;4986926;28;20262;-70
2021/01/04 11:57:59;;;;;;;14.80;11.27;;;1.50;99.90;;;;;;4973325;28;20224;-70
2021/01/04 12:00:26;;;;;;;16.92;10.90;;;1.50;99.90;;;;;;4974178;28;20230;-70
2021/01/04 12:02:53;;;;;;;16.50;11.13;;;1.50;99.90;;;;;;4967349;28;20219;-70
2021/01/04 12:05:19;;;;;;;14.70;11.00;;;1.50;99.90;;;;;;4976569;28;20607;-70
2021/01/04 12:07:45;;;;;;;14.82;10.75;;;1.50;99.90;;;;;;4979025;28;20274;-68
2021/01/04 12:10:13;;;;;;;12.85;9.52;;;1.60;99.90;;;;;;4977008;28;20707;-70
2021/01/04 12:12:39;;;;;;;12.85;9.80;;;1.50;99.90;;;;;;4977995;28;20204;-70
2021/01/04 12:15:08;;;;;;;12.65;9.98;;;1.60;99.90;;;;;;4974114;28;20228;-68
2021/01/04 12:17:34;;;;;;;13.00;8.63;;;1.60;99.90;;;;;;4980764;28;20318;-68
2021/01/04 12:20:00;;;;;;;12.50;9.10;;;1.50;99.90;;;;;;4975891;28;20206;-69
2021/01/04 12:22:27;;;;;;;9.43;7.65;;;1.50;99.90;;;;;;4975487;28;20219;-69
2021/01/04 12:24:53;;;;;;;12.23;9.07;;;1.50;99.90;;;;;;4973253;28;20239;-69
2021/01/04 12:27:19;;;;;;;9.85;8.60;;;1.50;99.90;;;;;;4979100;28;20199;-68
2021/01/04 12:29:46;;;;;;;10.32;8.20;;;1.50;99.90;;;;;;4979660;28;20219;-69
2021/01/04 12:32:14;;;;;;;11.05;8.27;;;1.50;99.90;;;;;;4981678;28;20654;-69
2021/01/04 12:34:41;;;;;;;10.90;8.15;;;1.50;99.90;;;;;;4979675;28;20719;-69
2021/01/04 12:37:07;;;;;;;10.35;8.15;;;1.50;99.90;;;;;;4970067;28;20756;-69
2021/01/04 12:39:34;;;;;;;11.55;7.65;;;1.40;99.90;;;;;;4967405;28;20258;-69
2021/01/04 12:42:00;;;;;;;10.93;7.90;;;1.40;99.90;;;;;;4976971;28;20215;-69
2021/01/04 12:44:26;;;;;;;11.80;8.52;;;1.40;99.90;;;;;;4966926;28;20227;-69
2021/01/04 12:46:53;;;;;;;13.45;9.02;;;1.40;99.90;;;;;;4977076;28;20674;-69
2021/01/04 12:49:22;;;;;;;10.50;8.50;;;1.40;99.90;;;;;;4979131;28;20273;-69
2021/01/04 12:51:49;;;;;;;11.57;8.40;;;1.50;99.90;;;;;;4978790;28;20214;-68
2021/01/04 12:54:18;;;;;;;11.88;8.93;;;1.40;99.90;;;;;;4968758;28;21419;-69
2021/01/04 12:56:44;;;;;;;11.45;8.63;;;1.40;99.90;;;;;;4970264;28;20203;-69
2021/01/04 12:59:11;;;;;;;11.70;8.30;;;1.40;99.90;;;;;;4976628;28;20215;-69
2021/01/04 13:01:39;;;;;;;11.73;8.38;;;1.40;99.90;;;;;;4981091;28;20298;-69
2021/01/04 13:04:05;;;;;;;11.63;9.15;;;1.40;99.90;;;;;;4977122;28;20332;-68
2021/01/04 13:06:33;;;;;;;14.35;11.00;;;1.40;99.90;;;;;;4970592;28;20215;-68
2021/01/04 13:09:00;;;;;;;12.80;9.65;;;1.30;99.90;;;;;;4974825;28;20307;-69
2021/01/04 13:11:26;;;;;;;14.52;10.15;;;1.30;99.90;;;;;;4980663;28;20738;-71
2021/01/04 13:13:52;;;;;;;14.52;10.70;;;1.30;99.90;;;;;;4980252;28;20250;-70
2021/01/04 13:16:19;;;;;;;13.25;9.25;;;1.30;99.90;;;;;;4973382;28;20210;-70
2021/01/04 13:18:45;;;;;;;13.38;10.35;;;1.30;99.90;;;;;;4980580;28;20199;-71
2021/01/04 13:21:22;;;;;;;15.70;11.40;;;1.30;99.90;;;;;;4983816;28;20699;-70
2021/01/04 13:23:49;;;;;;;14.77;10.50;;;1.40;99.90;;;;;;4983819;28;20227;-70